createdAt,value
2019-01-15T00:00:30.863Z,15.27
2019-01-15T00:02:59.771Z,13.83
2019-01-15T00:05:28.715Z,15.03
2019-01-15T00:07:57.686Z,20.10
2019-01-15T00:10:26.494Z,12.37
2019-01-15T00:12:55.386Z,12.30
2019-01-15T00:15:24.273Z,11.80
2019-01-15T00:17:53.163Z,14.80
2019-01-15T00:20:21.964Z,13.87
2019-01-15T00:22:50.766Z,12.60
2019-01-15T00:25:19.599Z,18.07
2019-01-15T00:27:48.491Z,17.50
2019-01-15T00:30:18.423Z,14.93
2019-01-15T00:32:47.376Z,14.30
2019-01-15T00:35:16.295Z,14.67
2019-01-15T00:37:45.110Z,10.80
2019-01-15T00:40:15.959Z,10.73
2019-01-15T00:42:45.007Z,9.77
2019-01-15T00:45:14.302Z,11.30
2019-01-15T00:47:43.115Z,9.63
2019-01-15T00:50:13.719Z,14.47
2019-01-15T00:52:42.678Z,13.10
2019-01-15T00:55:12.008Z,8.23
2019-01-15T00:57:40.970Z,10.57
2019-01-15T01:00:16.438Z,10.07
2019-01-15T01:02:45.307Z,8.83
2019-01-15T01:05:15.162Z,13.33
2019-01-15T01:07:44.059Z,15.43
2019-01-15T01:10:13.666Z,15.53
2019-01-15T01:12:42.530Z,9.30
2019-01-15T01:15:12.873Z,10.57
2019-01-15T01:17:41.847Z,13.67
2019-01-15T01:20:13.800Z,14.27
2019-01-15T01:22:42.651Z,10.20
2019-01-15T01:25:12.720Z,6.43
2019-01-15T01:27:41.696Z,10.00
2019-01-15T01:30:19.415Z,9.87
2019-01-15T01:32:48.406Z,10.23
2019-01-15T01:35:17.418Z,9.87
2019-01-15T01:37:46.314Z,9.03
2019-01-15T01:40:17.219Z,10.40
2019-01-15T01:42:46.175Z,8.10
2019-01-15T01:45:15.732Z,12.83
2019-01-15T01:47:44.563Z,13.67
2019-01-15T01:50:14.322Z,10.10
2019-01-15T01:52:43.503Z,11.33
2019-01-15T01:55:13.946Z,13.40
2019-01-15T01:57:42.888Z,7.97
2019-01-15T02:00:20.032Z,9.83
2019-01-15T02:02:49.127Z,12.67
2019-01-15T02:05:18.154Z,11.70
2019-01-15T02:07:47.166Z,9.70
2019-01-15T02:10:18.151Z,10.30
2019-01-15T02:12:47.438Z,14.13
2019-01-15T02:15:18.566Z,9.50
2019-01-15T02:17:47.618Z,11.07
2019-01-15T02:20:18.277Z,11.00
2019-01-15T02:22:47.235Z,10.47
2019-01-15T02:25:16.318Z,8.37
2019-01-15T02:27:47.314Z,13.57
2019-01-15T02:30:18.382Z,9.63
2019-01-15T02:32:47.246Z,9.23
2019-01-15T02:35:16.432Z,5.47
2019-01-15T02:37:45.474Z,10.87
2019-01-15T02:40:14.573Z,13.13
2019-01-15T02:42:46.853Z,8.97
2019-01-15T02:45:15.400Z,9.53
2019-01-15T02:47:44.262Z,12.00
2019-01-15T02:50:15.075Z,12.03
2019-01-15T02:52:44.103Z,10.77
2019-01-15T02:55:13.215Z,13.10
2019-01-15T02:57:42.136Z,7.60
2019-01-15T03:00:22.526Z,8.93
2019-01-15T03:02:51.457Z,11.17
2019-01-15T03:05:20.911Z,7.57
2019-01-15T03:07:50.002Z,9.07
2019-01-15T03:10:19.852Z,13.00
2019-01-15T03:12:55.689Z,10.43
2019-01-15T03:15:23.114Z,12.10
2019-01-15T03:17:52.136Z,12.47
2019-01-15T03:20:21.102Z,11.63
2019-01-15T03:22:50.050Z,6.80
2019-01-15T03:25:19.003Z,6.97
2019-01-15T03:27:48.020Z,12.80
2019-01-15T03:30:26.083Z,8.93
2019-01-15T03:32:55.127Z,10.67
2019-01-15T03:35:24.137Z,7.63
2019-01-15T03:37:53.125Z,10.33
2019-01-15T03:40:24.138Z,8.40
2019-01-15T03:42:53.490Z,10.10
2019-01-15T03:45:22.560Z,12.27
2019-01-15T03:47:51.546Z,7.53
2019-01-15T03:50:20.487Z,7.73
2019-01-15T03:52:49.492Z,9.83
2019-01-15T03:55:18.593Z,8.43
2019-01-15T03:57:47.605Z,8.83
2019-01-15T04:00:21.878Z,12.43
2019-01-15T04:02:50.936Z,9.57
2019-01-15T04:05:19.898Z,7.20
2019-01-15T04:07:52.437Z,7.23
2019-01-15T04:10:21.340Z,11.50
2019-01-15T04:12:50.468Z,10.30
2019-01-15T04:15:19.401Z,9.17
2019-01-15T04:17:48.302Z,10.10
2019-01-15T04:20:17.288Z,9.10
2019-01-15T04:22:46.442Z,7.53
2019-01-15T04:25:15.909Z,6.43
2019-01-15T04:27:44.785Z,9.90
2019-01-15T04:30:16.303Z,6.13
2019-01-15T04:32:45.292Z,6.80
2019-01-15T04:35:14.280Z,7.77
2019-01-15T04:37:43.242Z,8.30
2019-01-15T04:40:14.938Z,6.60
2019-01-15T04:42:43.858Z,10.70
2019-01-15T04:45:14.146Z,7.87
2019-01-15T04:47:43.033Z,8.03
2019-01-15T04:50:12.036Z,7.63
2019-01-15T04:52:42.688Z,8.40
2019-01-15T04:55:11.837Z,7.27
2019-01-15T04:57:40.802Z,8.77
2019-01-15T05:00:13.230Z,11.37
2019-01-15T05:02:42.438Z,7.77
2019-01-15T05:05:12.927Z,7.37
2019-01-15T05:07:41.804Z,5.83
2019-01-15T05:10:12.068Z,8.93
2019-01-15T05:12:41.043Z,7.30
2019-01-15T05:15:13.007Z,10.13
2019-01-15T05:17:42.144Z,9.13
2019-01-15T05:20:12.630Z,13.50
2019-01-15T05:22:41.600Z,7.27
2019-01-15T05:25:13.179Z,7.03
2019-01-15T05:27:41.978Z,11.27
2019-01-15T05:30:14.863Z,6.93
2019-01-15T05:32:43.742Z,7.90
2019-01-15T05:35:12.758Z,8.37
2019-01-15T05:37:41.587Z,11.57
2019-01-15T05:40:10.856Z,10.43
2019-01-15T05:42:39.735Z,4.87
2019-01-15T05:45:11.943Z,10.07
2019-01-15T05:47:40.930Z,9.60
2019-01-15T05:50:11.999Z,8.00
2019-01-15T05:52:40.862Z,7.50
2019-01-15T05:55:09.897Z,6.13
2019-01-15T05:57:38.762Z,9.03
2019-01-15T06:00:08.697Z,9.97
2019-01-15T06:02:37.575Z,4.53
2019-01-15T06:05:07.598Z,8.80
2019-01-15T06:07:36.426Z,9.93
2019-01-15T06:10:07.718Z,8.97
2019-01-15T06:12:36.532Z,6.00
2019-01-15T06:15:06.855Z,8.00
2019-01-15T06:17:35.762Z,5.80
2019-01-15T06:20:06.299Z,10.00
2019-01-15T06:22:35.256Z,13.10
2019-01-15T06:25:04.707Z,10.53
2019-01-15T06:27:33.554Z,8.70
2019-01-15T06:30:02.382Z,5.97
2019-01-15T06:32:31.240Z,6.57
2019-01-15T06:35:00.304Z,8.37
2019-01-15T06:37:29.204Z,9.07
2019-01-15T06:39:58.063Z,11.87
2019-01-15T06:42:27.044Z,10.13
2019-01-15T06:44:55.935Z,10.20
2019-01-15T06:47:24.834Z,9.60
2019-01-15T06:49:53.703Z,7.97
2019-01-15T06:52:22.615Z,10.93
2019-01-15T06:54:51.450Z,10.47
2019-01-15T06:57:20.271Z,11.63
2019-01-15T06:59:49.115Z,13.43
2019-01-15T07:02:18.027Z,11.50
2019-01-15T07:04:46.926Z,12.43
2019-01-15T07:07:15.949Z,10.53
2019-01-15T07:09:44.906Z,13.77
2019-01-15T07:12:13.745Z,12.23
2019-01-15T07:14:42.710Z,12.10
2019-01-15T07:17:11.618Z,12.47
2019-01-15T07:19:40.438Z,15.37
2019-01-15T07:22:09.459Z,17.03
2019-01-15T07:24:38.290Z,16.80
2019-01-15T07:27:07.219Z,18.13
2019-01-15T07:29:36.181Z,20.53
2019-01-15T07:32:05.172Z,17.77
2019-01-15T07:34:33.998Z,18.07
2019-01-15T07:37:02.867Z,24.27
2019-01-15T07:39:31.694Z,20.83
2019-01-15T07:42:00.515Z,18.07
2019-01-15T07:44:29.330Z,19.83
2019-01-15T07:46:58.332Z,18.57
2019-01-15T07:49:27.175Z,20.37
2019-01-15T07:51:56.138Z,21.40
2019-01-15T07:54:24.982Z,22.17
2019-01-15T07:56:53.818Z,21.90
2019-01-15T07:59:22.695Z,23.20
2019-01-15T08:01:52.183Z,21.27
2019-01-15T08:04:21.147Z,22.23
2019-01-15T08:06:49.996Z,22.67
2019-01-15T08:09:18.816Z,27.30
2019-01-15T08:11:47.789Z,22.93
2019-01-15T08:14:16.674Z,26.07
2019-01-15T08:16:45.520Z,24.40
2019-01-15T08:19:14.423Z,24.47
2019-01-15T08:21:43.407Z,25.27
2019-01-15T08:24:12.240Z,27.73
2019-01-15T08:26:41.162Z,27.50
2019-01-15T08:29:10.088Z,25.57
2019-01-15T08:31:38.909Z,30.00
2019-01-15T08:34:07.966Z,28.43
2019-01-15T08:36:36.810Z,25.10
2019-01-15T08:39:07.949Z,27.37
2019-01-15T08:41:38.011Z,30.30
2019-01-15T08:44:07.021Z,27.93
2019-01-15T08:46:35.847Z,31.17
2019-01-15T08:49:04.853Z,31.60
2019-01-15T08:51:33.903Z,31.40
2019-01-15T08:54:03.070Z,25.27
2019-01-15T08:56:31.970Z,31.47
2019-01-15T08:59:00.883Z,26.17
2019-01-15T09:01:29.716Z,27.17
2019-01-15T09:03:58.598Z,29.93
2019-01-15T09:06:27.477Z,29.60
2019-01-15T09:08:56.306Z,31.27
2019-01-15T09:11:25.342Z,28.83
2019-01-15T09:13:54.305Z,29.07
2019-01-15T09:16:23.216Z,29.40
2019-01-15T09:18:52.096Z,34.00
2019-01-15T09:21:21.011Z,30.77
2019-01-15T09:23:49.830Z,29.00
2019-01-15T09:26:18.658Z,31.27
2019-01-15T09:28:47.559Z,30.47
2019-01-15T09:31:16.490Z,28.03
2019-01-15T09:33:45.394Z,28.17
2019-01-15T09:36:14.266Z,30.00
2019-01-15T09:38:43.177Z,34.43
2019-01-15T09:41:12.147Z,27.57
2019-01-15T09:43:40.965Z,32.40
2019-01-15T09:46:09.902Z,30.07
2019-01-15T09:48:39.004Z,30.23
2019-01-15T09:51:08.006Z,33.37
2019-01-15T09:53:36.934Z,34.93
2019-01-15T09:56:05.895Z,35.67
2019-01-15T09:58:34.746Z,35.37
2019-01-15T10:01:03.754Z,60.30
2019-01-15T10:03:32.759Z,43.83
2019-01-15T10:06:01.681Z,49.87
2019-01-15T10:08:30.597Z,46.33
2019-01-15T10:10:59.513Z,35.53
2019-01-15T10:13:28.437Z,33.47
2019-01-15T10:15:57.414Z,35.47
2019-01-15T10:18:26.326Z,36.57
2019-01-15T10:20:55.247Z,32.50
2019-01-15T10:23:24.254Z,33.17
2019-01-15T10:25:53.295Z,34.13
2019-01-15T10:28:22.303Z,33.20
2019-01-15T10:31:38.723Z,33.10
2019-01-15T10:34:24.326Z,34.80
2019-01-15T10:36:51.813Z,34.77
2019-01-15T10:39:20.727Z,29.03
2019-01-15T10:41:49.566Z,30.40
2019-01-15T10:44:18.562Z,33.60
2019-01-15T10:46:47.459Z,29.80
2019-01-15T10:49:16.363Z,28.97
2019-01-15T10:51:45.376Z,30.13
2019-01-15T10:54:14.169Z,31.90
2019-01-15T10:56:43.032Z,27.57
2019-01-15T10:59:12.115Z,31.00
2019-01-15T11:01:41.030Z,29.37
2019-01-15T11:04:09.926Z,33.50
2019-01-15T11:06:38.921Z,31.73
2019-01-15T11:09:09.468Z,28.03
2019-01-15T11:11:38.310Z,31.77
2019-01-15T11:14:08.668Z,33.03
2019-01-15T11:16:37.526Z,32.47
2019-01-15T11:19:06.486Z,31.53
2019-01-15T11:21:35.402Z,31.63
2019-01-15T11:24:04.610Z,29.47
2019-01-15T11:26:33.551Z,28.77
2019-01-15T11:29:02.453Z,36.07
2019-01-15T11:31:31.445Z,28.43
2019-01-15T11:34:00.379Z,28.30
2019-01-15T11:36:29.257Z,28.53
2019-01-15T11:38:58.150Z,29.20
2019-01-15T11:41:27.065Z,27.20
2019-01-15T11:43:55.893Z,29.43
2019-01-15T11:46:24.896Z,26.13
2019-01-15T11:48:53.798Z,29.33
2019-01-15T11:51:22.660Z,30.57
2019-01-15T11:53:51.545Z,24.47
2019-01-15T11:56:20.385Z,31.33
2019-01-15T11:58:50.009Z,28.87
2019-01-15T12:01:25.960Z,28.37
2019-01-15T12:04:12.594Z,31.10
2019-01-15T12:06:50.413Z,26.67
2019-01-15T12:09:37.092Z,27.13
2019-01-15T12:12:17.355Z,30.47
2019-01-15T12:15:10.606Z,27.13
2019-01-15T12:17:48.338Z,27.93
2019-01-15T12:20:27.035Z,28.17
2019-01-15T12:23:09.744Z,28.97
2019-01-15T12:25:56.603Z,23.73
2019-01-15T12:28:54.015Z,25.07
2019-01-15T12:31:35.932Z,24.10
2019-01-15T12:34:26.928Z,29.40
2019-01-15T12:37:13.687Z,23.47
2019-01-15T12:40:07.066Z,25.33
2019-01-15T12:42:53.558Z,24.87
2019-01-15T12:45:53.752Z,21.00
2019-01-15T12:48:40.424Z,20.93
2019-01-15T12:51:31.495Z,25.17
2019-01-15T12:54:14.031Z,20.03
2019-01-15T12:57:20.464Z,23.00
2019-01-15T13:00:07.010Z,23.43
2019-01-15T13:03:04.356Z,17.10
2019-01-15T13:05:51.169Z,20.57
2019-01-15T13:08:38.205Z,17.50
2019-01-15T13:11:33.061Z,18.33
2019-01-15T13:14:21.639Z,20.33
2019-01-15T13:17:07.600Z,16.80
2019-01-15T13:20:01.624Z,19.77
2019-01-15T13:22:40.508Z,17.07
2019-01-15T13:25:23.540Z,20.03
2019-01-15T13:28:10.458Z,16.60
2019-01-15T13:30:57.473Z,17.87
2019-01-15T13:33:49.188Z,17.27
2019-01-15T13:36:35.127Z,18.00
2019-01-15T13:39:32.003Z,14.00
2019-01-15T13:42:19.856Z,18.23
2019-01-15T13:45:07.620Z,15.60
2019-01-15T13:47:54.339Z,17.40
2019-01-15T13:50:40.596Z,19.00
2019-01-15T13:53:27.303Z,15.80
2019-01-15T13:56:29.219Z,16.43
2019-01-15T13:59:08.687Z,16.87
2019-01-15T14:01:53.555Z,15.90
2019-01-15T14:04:47.822Z,14.90
2019-01-15T14:07:31.185Z,15.83
2019-01-15T14:10:21.759Z,16.27
2019-01-15T14:13:15.578Z,14.97
2019-01-15T14:16:02.453Z,12.60
2019-01-15T14:18:46.211Z,13.53
2019-01-15T14:21:33.131Z,13.40
2019-01-15T14:24:36.704Z,17.77
2019-01-15T14:27:14.629Z,14.30
2019-01-15T14:30:02.703Z,13.10
2019-01-15T14:32:49.538Z,10.93
2019-01-15T14:35:36.013Z,12.30
2019-01-15T14:38:18.238Z,12.07
2019-01-15T14:41:09.781Z,14.63
2019-01-15T14:43:56.352Z,13.20
2019-01-15T14:46:43.103Z,14.43
2019-01-15T14:49:34.269Z,12.47
2019-01-15T14:52:23.262Z,12.37
2019-01-15T14:55:16.727Z,11.33
2019-01-15T14:57:55.834Z,13.13
2019-01-15T15:00:56.221Z,12.97
2019-01-15T15:03:44.247Z,14.43
2019-01-15T15:06:31.900Z,11.87
2019-01-15T15:09:25.999Z,11.23
2019-01-15T15:12:22.768Z,13.03
2019-01-15T15:15:23.958Z,12.57
2019-01-15T15:18:10.498Z,14.30
2019-01-15T15:21:09.691Z,12.43
2019-01-15T15:24:03.459Z,13.57
2019-01-15T15:26:50.250Z,16.37
2019-01-15T15:29:44.407Z,13.40
2019-01-15T15:32:31.754Z,10.23
2019-01-15T15:35:34.892Z,12.80
2019-01-15T15:38:28.971Z,14.83
2019-01-15T15:41:14.651Z,13.40
2019-01-15T15:44:17.742Z,12.50
2019-01-15T15:47:04.432Z,11.67
2019-01-15T15:49:51.235Z,13.93
2019-01-15T15:52:38.108Z,11.37
2019-01-15T15:55:32.088Z,12.00
2019-01-15T15:58:11.356Z,13.23
2019-01-15T16:01:06.967Z,12.73
2019-01-15T16:03:45.913Z,15.43
2019-01-15T16:06:23.616Z,15.53
2019-01-15T16:09:22.762Z,12.33
2019-01-15T16:12:28.965Z,12.23
2019-01-15T16:15:15.774Z,13.13
2019-01-15T16:18:06.802Z,14.03
2019-01-15T16:20:53.889Z,13.87
2019-01-15T16:23:40.555Z,14.23
2019-01-15T16:26:30.691Z,16.70
2019-01-15T16:29:17.656Z,14.00
2019-01-15T16:32:19.718Z,13.97
2019-01-15T16:35:07.668Z,14.80
2019-01-15T16:37:54.628Z,15.50
2019-01-15T16:40:34.640Z,17.43
2019-01-15T16:43:22.800Z,13.97
2019-01-15T16:46:10.057Z,15.17
2019-01-15T16:49:06.247Z,15.53
2019-01-15T16:52:05.239Z,17.77
2019-01-15T16:54:53.228Z,15.33
2019-01-15T16:57:31.022Z,16.57
2019-01-15T17:00:34.182Z,18.57
2019-01-15T17:03:15.901Z,15.53
2019-01-15T17:06:19.259Z,18.90
2019-01-15T17:09:05.203Z,16.43
2019-01-15T17:11:49.883Z,14.40
2019-01-15T17:14:37.977Z,16.50
2019-01-15T17:17:17.435Z,15.73
2019-01-15T17:20:06.725Z,16.43
2019-01-15T17:22:43.839Z,17.43
2019-01-15T17:25:44.162Z,18.30
2019-01-15T17:28:37.014Z,16.07
2019-01-15T17:31:23.999Z,15.57
2019-01-15T17:34:10.968Z,15.33
2019-01-15T17:36:47.110Z,16.97
2019-01-15T17:39:34.211Z,19.97
2019-01-15T17:42:18.186Z,16.87
2019-01-15T17:45:24.442Z,17.77
2019-01-15T17:48:08.777Z,18.30
2019-01-15T17:51:03.021Z,20.77
2019-01-15T17:53:52.482Z,17.97
2019-01-15T17:56:52.931Z,19.13
2019-01-15T17:59:41.000Z,19.20
2019-01-15T18:02:29.034Z,21.77
2019-01-15T18:05:19.513Z,21.30
2019-01-15T18:08:10.711Z,18.37
2019-01-15T18:10:57.726Z,17.53
2019-01-15T18:13:45.674Z,19.53
2019-01-15T18:16:30.714Z,20.53
2019-01-15T18:19:10.179Z,21.43
2019-01-15T18:21:53.486Z,17.10
2019-01-15T18:24:47.637Z,20.30
2019-01-15T18:27:41.494Z,22.53
2019-01-15T18:30:39.454Z,18.30
2019-01-15T18:33:26.163Z,18.40
2019-01-15T18:36:12.910Z,18.90
2019-01-15T18:38:59.333Z,19.20
2019-01-15T18:41:44.597Z,17.23
2019-01-15T18:44:29.792Z,21.20
2019-01-15T18:47:10.255Z,18.03
2019-01-15T18:49:50.469Z,20.87
2019-01-15T18:52:40.675Z,19.33
2019-01-15T18:55:22.914Z,22.20
2019-01-15T18:58:20.343Z,22.27
2019-01-15T19:01:26.707Z,22.73
2019-01-15T19:04:15.891Z,24.23
2019-01-15T19:07:02.951Z,24.90
2019-01-15T19:09:52.064Z,31.23
2019-01-15T19:12:44.404Z,24.43
2019-01-15T19:15:26.054Z,24.43
2019-01-15T19:18:23.028Z,23.60
2019-01-15T19:21:03.182Z,26.33
2019-01-15T19:24:03.446Z,25.33
2019-01-15T19:26:43.847Z,25.73
2019-01-15T19:29:26.628Z,28.77
2019-01-15T19:32:27.116Z,23.83
2019-01-15T19:35:33.238Z,25.43
2019-01-15T19:38:20.398Z,25.27
2019-01-15T19:41:04.928Z,25.63
2019-01-15T19:43:53.118Z,29.73
2019-01-15T19:46:44.986Z,24.10
2019-01-15T19:49:45.044Z,25.00
2019-01-15T19:52:31.107Z,24.87
2019-01-15T19:55:19.228Z,29.00
2019-01-15T19:58:05.955Z,26.40
2019-01-15T20:00:52.645Z,24.50
2019-01-15T20:03:43.716Z,24.63
2019-01-15T20:06:30.839Z,23.63
2019-01-15T20:09:18.732Z,27.37
2019-01-15T20:12:12.989Z,22.03
2019-01-15T20:14:56.846Z,25.13
2019-01-15T20:17:38.527Z,21.93
2019-01-15T20:20:26.730Z,20.17
2019-01-15T20:23:13.364Z,21.80
2019-01-15T20:26:07.288Z,20.27
2019-01-15T20:28:53.914Z,18.77
2019-01-15T20:31:40.707Z,20.93
2019-01-15T20:34:27.843Z,19.57
2019-01-15T20:37:14.730Z,18.73
2019-01-15T20:39:59.451Z,19.67
2019-01-15T20:43:05.731Z,19.00
2019-01-15T20:45:54.325Z,19.50
2019-01-15T20:48:33.462Z,20.00
2019-01-15T20:51:27.430Z,18.63
2019-01-15T20:54:09.709Z,18.53
2019-01-15T20:57:06.318Z,18.23
2019-01-15T20:59:53.745Z,17.90
2019-01-15T21:02:30.402Z,18.93
2019-01-15T21:05:17.544Z,19.33
2019-01-15T21:08:08.430Z,20.40
2019-01-15T21:10:55.536Z,19.47
2019-01-15T21:13:49.585Z,18.77
2019-01-15T21:16:52.804Z,18.43
2019-01-15T21:19:50.201Z,19.33
2019-01-15T21:22:44.547Z,21.77
2019-01-15T21:25:35.657Z,20.33
2019-01-15T21:28:26.959Z,21.10
2019-01-15T21:31:13.537Z,22.83
2019-01-15T21:34:16.790Z,22.13
2019-01-15T21:37:09.847Z,21.60
2019-01-15T21:39:51.268Z,21.30
2019-01-15T21:42:48.588Z,22.07
2019-01-15T21:45:39.719Z,22.27
2019-01-15T21:48:37.025Z,22.57
2019-01-15T21:51:33.470Z,23.63
2019-01-15T21:54:20.403Z,26.60
2019-01-15T21:57:07.287Z,28.30
2019-01-15T22:00:01.508Z,29.80
2019-01-15T22:02:45.006Z,30.10
2019-01-15T22:05:31.590Z,32.53
2019-01-15T22:08:18.526Z,35.40
2019-01-15T22:11:06.152Z,37.03
2019-01-15T22:13:54.099Z,33.37
2019-01-15T22:16:45.106Z,33.53
2019-01-15T22:19:35.370Z,35.90
2019-01-15T22:22:22.118Z,33.37
2019-01-15T22:25:05.139Z,33.77
2019-01-15T22:28:00.410Z,35.03
2019-01-15T22:30:41.418Z,32.73
2019-01-15T22:33:29.938Z,29.97
2019-01-15T22:36:13.087Z,29.57
2019-01-15T22:38:56.300Z,28.87
2019-01-15T22:41:45.170Z,29.30
2019-01-15T22:44:31.810Z,29.17
2019-01-15T22:47:19.075Z,28.37
2019-01-15T22:50:05.965Z,30.27
2019-01-15T22:52:42.880Z,29.03
2019-01-15T22:55:19.431Z,29.93
2019-01-15T22:58:01.748Z,27.83
2019-01-15T23:01:08.224Z,30.30
2019-01-15T23:03:50.077Z,27.70
2019-01-15T23:06:38.057Z,30.83
2019-01-15T23:09:21.049Z,27.80
2019-01-15T23:12:07.603Z,31.00
2019-01-15T23:14:47.198Z,29.87
2019-01-15T23:17:22.018Z,31.80
2019-01-15T23:20:08.723Z,31.30
2019-01-15T23:22:55.438Z,32.07
2019-01-15T23:25:41.135Z,31.60
2019-01-15T23:28:28.146Z,32.63
2019-01-15T23:31:14.980Z,32.23
2019-01-15T23:33:50.990Z,34.47
2019-01-15T23:36:29.321Z,32.00
2019-01-15T23:39:17.282Z,30.20
2019-01-15T23:42:05.206Z,30.07
2019-01-15T23:44:46.686Z,33.73
2019-01-15T23:47:33.445Z,32.17
2019-01-15T23:50:30.023Z,29.07
2019-01-15T23:53:16.892Z,31.97
2019-01-15T23:56:04.882Z,30.50
2019-01-15T23:58:47.582Z,30.83
